Archival Weather

Tokyo Intl

Tokyo, Japan (RJTT)

Report from: Tuesday, September 19, 2023 1:00 PM JST
Current time: Tuesday, July 16, 2024 6:43 PM JST

Current weather – Weather history – Daily summaries
Weather forecast

Temperature32.0°C (89.6°F)
Heat index37.9°C (100.3°F)
Dew point24.0°C (75.2°F)
Winds 16 kts (8.2 m/s, 18.4 mph) South (190°)
Visibility6.2 mi. (10 km)
Clouds Few clouds 3,000 ft. (914 m)
Altimeter29.88 in.Hg (1012 mB)
Relative humidity63 %
Density altitude2,381 ft. (726 m)
Remarks No significant changes expected in the next two hours
Flight conditions Visual Meteorological Conditions
Raw dataRJTT 190400Z 19016KT 9999 FEW030 32/24 Q1012 NOSIG RMK 1CU030 A2989
An error has occurred. This application may no longer respond until reloaded. Reload 🗙